Time;durP1;ratioP1;P1;durP2;ratioP2;P2;SDS_P1;SDS_P2;PMS_P1;PMS_P2;Temp;Humidity;BMP_temperature;BMP_pressure;BME280_temperature;BME280_humidity;BME280_pressure;Samples;Min_cycle;Max_cycle;Signal;HPM_P1;HPM_P2
2023/08/30 00:02:14;;;;;;;3.70;3.43;;;17.90;52.90;;;;;;10462019;28;20228;-71
2023/08/30 00:07:18;;;;;;;4.20;3.90;;;17.90;52.80;;;;;;10461229;28;20595;-71
2023/08/30 00:12:22;;;;;;;4.50;4.10;;;17.90;52.80;;;;;;10455586;28;20319;-71
2023/08/30 00:17:26;;;;;;;4.40;4.10;;;17.80;52.70;;;;;;10465457;28;20220;-71
2023/08/30 00:22:31;;;;;;;4.60;4.30;;;17.80;53.00;;;;;;10461764;28;20346;-71
2023/08/30 00:27:34;;;;;;;4.60;4.20;;;17.70;53.10;;;;;;10460548;28;20283;-71
2023/08/30 00:32:37;;;;;;;4.97;4.67;;;17.80;53.10;;;;;;10456765;28;20232;-71
2023/08/30 00:37:42;;;;;;;5.27;4.83;;;17.80;53.10;;;;;;10462176;28;20228;-71
2023/08/30 00:42:45;;;;;;;4.73;4.37;;;17.80;52.90;;;;;;10457772;28;20228;-71
2023/08/30 00:47:48;;;;;;;5.50;4.40;;;17.70;52.80;;;;;;10459456;28;20223;-71
2023/08/30 00:52:53;;;;;;;4.73;4.43;;;17.80;52.90;;;;;;10458235;28;20220;-70
2023/08/30 00:57:56;;;;;;;5.33;5.03;;;17.70;52.80;;;;;;10461758;28;20731;-71
2023/08/30 01:02:59;;;;;;;5.30;5.00;;;17.70;52.80;;;;;;10454119;28;20309;-71
2023/08/30 01:08:05;;;;;;;5.73;5.20;;;17.60;52.90;;;;;;10456041;28;20243;-71
2023/08/30 01:13:14;;;;;;;4.83;4.53;;;17.60;53.00;;;;;;10456583;28;20232;-71
2023/08/30 01:18:19;;;;;;;4.80;4.50;;;17.50;53.10;;;;;;10457946;28;20694;-71
2023/08/30 01:23:37;;;;;;;5.80;5.33;;;17.50;53.40;;;;;;10457263;28;20233;-71
2023/08/30 01:28:42;;;;;;;5.17;4.87;;;17.50;53.10;;;;;;10462634;28;20768;-71
2023/08/30 01:33:46;;;;;;;5.70;5.30;;;17.50;53.20;;;;;;10458815;28;20539;-71
2023/08/30 01:38:50;;;;;;;6.13;5.63;;;17.40;53.50;;;;;;10456503;28;20310;-71
2023/08/30 01:43:55;;;;;;;5.43;4.50;;;17.40;53.60;;;;;;10455909;28;20229;-71
2023/08/30 01:48:58;;;;;;;6.20;5.70;;;17.40;53.70;;;;;;10450316;28;20223;-71
2023/08/30 01:54:03;;;;;;;5.53;5.23;;;17.50;53.90;;;;;;10458610;28;20225;-71
2023/08/30 01:59:07;;;;;;;5.53;5.20;;;17.50;54.40;;;;;;10457577;28;20252;-71
2023/08/30 02:04:11;;;;;;;6.10;5.70;;;17.50;53.80;;;;;;10459902;28;20255;-71
2023/08/30 02:09:19;;;;;;;6.23;5.83;;;17.50;53.50;;;;;;10453812;28;20239;-71
2023/08/30 02:14:26;;;;;;;5.60;5.20;;;17.50;53.50;;;;;;10458326;28;20225;-71
2023/08/30 02:19:29;;;;;;;6.13;5.73;;;17.60;53.80;;;;;;10459845;28;20242;-71
2023/08/30 02:24:32;;;;;;;6.30;5.90;;;17.60;53.50;;;;;;10459516;28;20228;-71
2023/08/30 02:29:37;;;;;;;5.53;5.13;;;17.60;53.50;;;;;;10457451;28;20604;-70
2023/08/30 02:34:40;;;;;;;6.97;6.47;;;17.70;53.50;;;;;;10458253;28;20239;-71
2023/08/30 02:39:44;;;;;;;7.07;6.57;;;17.70;53.40;;;;;;10448439;28;20731;-71
2023/08/30 02:44:48;;;;;;;6.63;6.13;;;17.70;53.20;;;;;;10455485;28;20229;-71
2023/08/30 02:49:51;;;;;;;7.40;6.80;;;17.60;52.90;;;;;;10455082;28;20229;-71
2023/08/30 02:54:54;;;;;;;7.23;6.73;;;17.60;53.10;;;;;;10455212;28;20708;-71
2023/08/30 02:59:59;;;;;;;7.07;6.57;;;17.60;53.00;;;;;;10453110;28;20596;-71
2023/08/30 03:05:04;;;;;;;8.03;7.33;;;17.60;52.90;;;;;;10460515;28;20227;-71
2023/08/30 03:10:08;;;;;;;7.90;7.40;;;17.60;52.90;;;;;;10461084;28;20244;-71
2023/08/30 03:15:12;;;;;;;8.10;7.50;;;17.60;52.80;;;;;;10467947;28;20355;-71
2023/08/30 03:20:16;;;;;;;8.57;7.97;;;17.50;52.80;;;;;;10468753;28;20722;-71
2023/08/30 03:25:19;;;;;;;8.73;8.00;;;17.50;53.00;;;;;;10465580;28;20232;-71
2023/08/30 03:30:23;;;;;;;9.37;8.67;;;17.40;53.10;;;;;;10464945;28;20780;-71
2023/08/30 03:35:26;;;;;;;9.20;8.60;;;17.40;53.10;;;;;;10466766;28;20228;-71
2023/08/30 03:40:31;;;;;;;9.73;9.03;;;17.30;53.10;;;;;;10468406;28;20232;-71
2023/08/30 03:45:37;;;;;;;9.73;8.97;;;17.30;53.30;;;;;;10461943;28;20401;-71
2023/08/30 03:50:40;;;;;;;9.27;8.67;;;17.30;53.20;;;;;;10464674;28;20649;-71
2023/08/30 03:55:43;;;;;;;9.67;8.97;;;17.20;53.20;;;;;;10458058;28;20252;-71
2023/08/30 04:00:48;;;;;;;11.07;10.27;;;17.30;53.40;;;;;;10459991;28;20236;-71
2023/08/30 04:05:56;;;;;;;10.63;9.83;;;17.20;53.50;;;;;;10460902;28;20225;-71
2023/08/30 04:11:00;;;;;;;10.47;9.67;;;17.20;53.60;;;;;;10462760;28;20258;-71
2023/08/30 04:16:05;;;;;;;10.77;9.97;;;17.20;53.50;;;;;;10461061;28;20322;-71
2023/08/30 04:21:08;;;;;;;10.23;9.53;;;17.20;53.50;;;;;;10464287;28;20231;-70
2023/08/30 04:26:11;;;;;;;11.40;10.60;;;17.20;53.40;;;;;;10460832;28;20256;-71
2023/08/30 04:31:16;;;;;;;11.33;10.53;;;17.20;53.70;;;;;;10454283;28;20229;-71
2023/08/30 04:36:19;;;;;;;10.63;9.83;;;17.20;53.80;;;;;;10454946;28;20229;-71
2023/08/30 04:41:22;;;;;;;11.97;11.07;;;17.30;53.60;;;;;;10462107;28;20309;-71
2023/08/30 04:46:27;;;;;;;12.40;11.50;;;17.30;53.50;;;;;;10463664;28;20224;-71
2023/08/30 04:51:30;;;;;;;12.47;11.57;;;17.20;53.50;;;;;;10456138;28;20453;-71
2023/08/30 04:56:33;;;;;;;11.97;11.10;;;17.20;53.50;;;;;;10463387;28;20245;-70
2023/08/30 05:01:43;;;;;;;11.60;10.80;;;17.20;53.70;;;;;;10456944;28;20237;-71
2023/08/30 05:06:47;;;;;;;13.13;12.03;;;17.20;54.00;;;;;;10444204;28;20307;-71
2023/08/30 05:11:50;;;;;;;12.93;11.87;;;17.20;53.80;;;;;;10450473;28;20232;-70
2023/08/30 05:16:55;;;;;;;12.07;11.03;;;17.20;53.80;;;;;;10461066;28;20718;-70
2023/08/30 05:21:58;;;;;;;12.17;11.23;;;17.30;53.90;;;;;;10460853;28;20584;-70
2023/08/30 05:27:01;;;;;;;12.57;11.57;;;17.30;53.70;;;;;;10456477;28;20228;-70
2023/08/30 05:32:06;;;;;;;12.37;11.37;;;17.30;53.80;;;;;;10456249;28;20231;-70
2023/08/30 05:37:10;;;;;;;10.00;9.30;;;17.30;54.00;;;;;;10453445;28;20285;-71
2023/08/30 05:42:13;;;;;;;11.20;10.40;;;17.30;54.10;;;;;;10453946;28;20722;-70
2023/08/30 05:47:18;;;;;;;13.80;12.70;;;17.30;54.00;;;;;;10456432;28;20236;-70
2023/08/30 05:52:22;;;;;;;13.00;11.90;;;17.40;54.20;;;;;;10455658;28;20693;-70
2023/08/30 05:57:26;;;;;;;12.93;12.03;;;17.40;54.40;;;;;;10453964;28;20712;-71
2023/08/30 06:02:31;;;;;;;12.97;11.87;;;17.40;54.40;;;;;;10456818;28;20242;-70
2023/08/30 06:07:34;;;;;;;13.30;12.30;;;17.40;54.50;;;;;;10453359;28;20307;-70
2023/08/30 06:12:38;;;;;;;13.00;12.10;;;17.50;54.20;;;;;;10458738;28;20769;-70
2023/08/30 06:17:43;;;;;;;12.40;11.50;;;17.50;54.40;;;;;;10456669;28;20232;-71
2023/08/30 06:22:46;;;;;;;12.47;11.57;;;17.50;54.30;;;;;;10458821;28;20225;-71
2023/08/30 06:27:58;;;;;;;12.23;11.33;;;17.50;54.90;;;;;;10457274;28;20231;-71
2023/08/30 06:33:03;;;;;;;13.63;12.63;;;17.60;54.70;;;;;;10455478;28;20229;-71
2023/08/30 06:38:06;;;;;;;12.97;12.07;;;17.60;54.40;;;;;;10453342;28;20322;-70
2023/08/30 06:43:10;;;;;;;12.23;11.23;;;17.60;54.70;;;;;;10452100;28;20255;-70
2023/08/30 06:48:14;;;;;;;13.50;12.50;;;17.70;54.80;;;;;;10455280;28;20247;-70
2023/08/30 06:53:18;;;;;;;13.43;12.33;;;17.80;54.90;;;;;;10452861;28;20236;-70
2023/08/30 06:58:21;;;;;;;12.93;11.93;;;17.80;54.70;;;;;;10453640;28;20229;-70
2023/08/30 07:03:25;;;;;;;13.33;12.10;;;17.90;55.00;;;;;;10457110;28;20243;-70
2023/08/30 07:08:28;;;;;;;12.60;11.47;;;18.00;55.40;;;;;;10456449;28;20225;-69
2023/08/30 07:13:32;;;;;;;13.10;12.03;;;18.00;54.60;;;;;;10450553;28;20320;-70
2023/08/30 07:18:36;;;;;;;12.60;11.70;;;18.10;54.50;;;;;;10451210;28;20712;-70
2023/08/30 07:23:39;;;;;;;12.90;11.90;;;18.20;54.30;;;;;;10453222;28;20303;-70
2023/08/30 07:28:43;;;;;;;12.40;11.50;;;18.30;55.10;;;;;;10454639;28;20235;-69
2023/08/30 07:33:47;;;;;;;12.17;11.37;;;18.40;54.80;;;;;;10447135;28;20249;-70
2023/08/30 07:38:50;;;;;;;12.33;11.43;;;18.40;53.90;;;;;;10447727;28;20247;-70
2023/08/30 07:43:54;;;;;;;13.43;12.27;;;18.50;53.80;;;;;;10455232;28;20308;-70
2023/08/30 07:48:59;;;;;;;12.23;11.33;;;18.60;53.40;;;;;;10453308;28;20301;-70
2023/08/30 07:54:02;;;;;;;13.17;12.17;;;18.60;53.30;;;;;;10448404;28;20267;-70
2023/08/30 07:59:07;;;;;;;12.90;11.90;;;18.70;52.90;;;;;;10453958;28;20399;-70
2023/08/30 08:04:12;;;;;;;12.63;11.73;;;18.70;53.10;;;;;;10456239;28;20220;-70
2023/08/30 08:09:15;;;;;;;12.70;11.80;;;18.80;52.90;;;;;;10459284;28;20228;-70
2023/08/30 08:14:18;;;;;;;10.93;10.10;;;18.70;52.70;;;;;;10451675;28;20229;-73
2023/08/30 08:19:23;;;;;;;11.63;10.83;;;18.70;52.90;;;;;;10454531;28;20264;-71
2023/08/30 08:24:28;;;;;;;11.20;10.40;;;18.90;52.70;;;;;;10450066;28;20232;-70
2023/08/30 08:29:32;;;;;;;11.13;10.33;;;18.90;52.70;;;;;;10446962;28;20236;-70
2023/08/30 08:34:37;;;;;;;10.87;10.07;;;19.00;52.70;;;;;;10450547;28;20873;-70
2023/08/30 08:39:40;;;;;;;11.50;10.70;;;19.10;52.60;;;;;;10441897;28;20232;-71
2023/08/30 08:44:44;;;;;;;11.83;11.03;;;19.20;52.90;;;;;;10449448;28;20220;-71
2023/08/30 08:49:50;;;;;;;11.57;10.67;;;19.20;52.60;;;;;;10448945;28;21390;-71
2023/08/30 08:54:55;;;;;;;11.80;10.90;;;19.20;51.90;;;;;;10452455;28;20250;-71
2023/08/30 08:59:58;;;;;;;10.60;9.80;;;19.30;52.20;;;;;;10449989;28;20236;-71
2023/08/30 09:05:04;;;;;;;10.97;10.20;;;19.40;52.20;;;;;;10451038;28;20241;-70
2023/08/30 09:10:08;;;;;;;10.03;9.33;;;19.40;51.40;;;;;;10441596;28;20225;-70
2023/08/30 09:15:11;;;;;;;9.73;9.03;;;19.50;51.50;;;;;;10447871;28;20233;-70
2023/08/30 09:20:18;;;;;;;9.17;8.57;;;19.50;51.90;;;;;;10449420;28;20512;-70
2023/08/30 09:25:26;;;;;;;10.07;9.27;;;19.60;51.60;;;;;;10452764;28;20228;-70
2023/08/30 09:30:29;;;;;;;8.97;8.27;;;19.60;50.90;;;;;;10450271;28;20644;-70
2023/08/30 09:35:44;;;;;;;8.50;7.90;;;19.70;51.80;;;;;;10453775;28;20225;-70
2023/08/30 09:40:48;;;;;;;7.70;7.20;;;19.70;50.70;;;;;;10456033;28;20251;-70
2023/08/30 09:45:51;;;;;;;7.10;6.63;;;19.90;52.20;;;;;;10455830;28;20224;-70
2023/08/30 09:51:00;;;;;;;6.33;5.83;;;20.00;51.70;;;;;;10451365;28;20258;-70
2023/08/30 09:56:04;;;;;;;6.60;6.10;;;20.20;50.90;;;;;;10454628;28;20223;-71
2023/08/30 10:01:08;;;;;;;6.83;6.37;;;20.30;52.20;;;;;;10459326;28;20314;-70
2023/08/30 10:06:12;;;;;;;6.47;5.97;;;20.50;51.30;;;;;;10455104;28;20579;-71
2023/08/30 10:11:17;;;;;;;6.07;5.67;;;20.70;50.50;;;;;;10454440;28;20228;-70
2023/08/30 10:16:23;;;;;;;4.90;4.60;;;20.80;50.30;;;;;;10450722;28;20228;-70
2023/08/30 10:21:30;;;;;;;5.03;4.73;;;21.00;49.60;;;;;;10451654;28;20228;-71
2023/08/30 10:26:34;;;;;;;5.73;5.33;;;21.10;48.70;;;;;;10453442;28;20216;-71
2023/08/30 10:31:39;;;;;;;5.50;5.10;;;21.20;49.80;;;;;;10454348;28;20239;-70
2023/08/30 10:36:44;;;;;;;5.23;4.83;;;21.40;48.10;;;;;;10455741;28;20224;-70
2023/08/30 10:41:57;;;;;;;6.10;5.63;;;21.50;48.10;;;;;;10459031;28;20311;-71
2023/08/30 10:47:03;;;;;;;4.70;4.40;;;21.50;46.80;;;;;;10457502;28;20319;-71
2023/08/30 10:52:13;;;;;;;4.30;3.90;;;21.70;46.80;;;;;;10452626;28;20225;-71
2023/08/30 10:57:21;;;;;;;3.60;3.30;;;21.80;44.90;;;;;;10453405;28;20314;-70
2023/08/30 11:02:26;;;;;;;4.00;3.80;;;21.90;46.90;;;;;;10449171;28;20231;-70
2023/08/30 11:07:31;;;;;;;4.60;4.30;;;22.00;45.60;;;;;;10453161;28;20274;-71
2023/08/30 11:12:35;;;;;;;4.10;3.80;;;22.00;44.50;;;;;;10451480;28;20270;-70
2023/08/30 11:17:38;;;;;;;3.50;3.30;;;21.90;45.50;;;;;;10454423;28;20230;-70
2023/08/30 11:22:44;;;;;;;4.00;3.80;;;21.90;45.90;;;;;;10449685;28;20225;-70
2023/08/30 11:27:48;;;;;;;4.30;4.00;;;21.90;44.60;;;;;;10454799;28;20307;-70
2023/08/30 11:32:51;;;;;;;4.00;3.70;;;21.90;45.50;;;;;;10452198;28;20312;-70
2023/08/30 11:37:56;;;;;;;3.90;3.70;;;21.90;46.10;;;;;;10459836;28;20583;-70
2023/08/30 11:43:04;;;;;;;4.23;4.03;;;21.90;43.90;;;;;;10464004;28;20310;-70
2023/08/30 11:48:09;;;;;;;4.10;3.53;;;22.00;43.70;;;;;;10459892;28;20232;-71
2023/08/30 11:53:14;;;;;;;3.23;3.03;;;22.10;45.20;;;;;;10460129;28;20239;-70
2023/08/30 11:58:19;;;;;;;3.50;3.30;;;22.10;44.50;;;;;;10460056;28;20228;-70
2023/08/30 12:03:23;;;;;;;2.77;2.57;;;22.20;43.90;;;;;;10456070;28;20236;-71
2023/08/30 12:08:29;;;;;;;3.00;2.80;;;22.20;44.40;;;;;;10456517;28;20244;-70
2023/08/30 12:13:34;;;;;;;2.70;2.60;;;22.20;43.80;;;;;;10460297;28;20231;-70
2023/08/30 12:18:37;;;;;;;2.60;2.50;;;22.30;43.70;;;;;;10459554;28;20310;-70
2023/08/30 12:23:42;;;;;;;3.90;3.70;;;22.30;44.10;;;;;;10459152;28;20252;-70
2023/08/30 12:28:45;;;;;;;3.60;3.40;;;22.40;43.10;;;;;;10451026;28;20230;-70
2023/08/30 12:33:48;;;;;;;3.80;3.33;;;22.40;44.90;;;;;;10452208;28;20674;-71
2023/08/30 12:38:53;;;;;;;4.30;4.00;;;22.50;44.30;;;;;;10451765;28;20554;-71
2023/08/30 12:43:56;;;;;;;3.80;3.60;;;22.60;42.30;;;;;;10444082;28;21158;-70
2023/08/30 12:48:59;;;;;;;3.30;3.10;;;22.60;43.20;;;;;;10455509;28;20307;-70
2023/08/30 12:54:04;;;;;;;3.20;3.00;;;22.60;42.70;;;;;;10447245;28;20216;-71
2023/08/30 12:59:08;;;;;;;3.20;3.00;;;22.50;41.90;;;;;;10453208;28;20228;-70
2023/08/30 13:04:11;;;;;;;2.83;2.70;;;22.50;43.20;;;;;;10454998;28;20693;-71
2023/08/30 13:09:15;;;;;;;2.60;2.40;;;22.50;42.80;;;;;;10462925;28;20609;-71
2023/08/30 13:14:19;;;;;;;2.67;2.57;;;22.50;41.90;;;;;;10458348;28;20234;-71
2023/08/30 13:19:22;;;;;;;2.67;2.47;;;22.40;42.10;;;;;;10463484;28;20247;-71
2023/08/30 13:24:26;;;;;;;2.97;2.53;;;22.30;41.80;;;;;;10457670;28;20310;-70
2023/08/30 13:29:30;;;;;;;2.73;2.53;;;22.20;41.70;;;;;;10455933;28;20229;-71
2023/08/30 13:34:33;;;;;;;2.60;2.40;;;22.20;41.80;;;;;;10457916;28;20307;-70
2023/08/30 13:39:38;;;;;;;2.97;2.77;;;22.10;42.30;;;;;;10456937;28;20231;-71
2023/08/30 13:44:43;;;;;;;2.90;2.70;;;22.00;42.50;;;;;;10454980;28;20216;-70
2023/08/30 13:49:46;;;;;;;3.40;3.13;;;22.10;43.10;;;;;;10458018;28;20312;-71
2023/08/30 13:54:51;;;;;;;2.53;2.43;;;22.20;42.60;;;;;;10448578;28;20263;-71
2023/08/30 13:59:55;;;;;;;3.10;2.80;;;22.30;41.60;;;;;;10444582;28;20224;-71
2023/08/30 14:04:58;;;;;;;2.57;2.37;;;22.30;42.30;;;;;;10439826;28;20216;-71
2023/08/30 14:10:03;;;;;;;2.77;2.57;;;22.30;41.60;;;;;;10441884;28;20358;-71
2023/08/30 14:15:06;;;;;;;2.30;2.20;;;22.30;40.10;;;;;;10438747;28;20224;-71
2023/08/30 14:20:11;;;;;;;2.43;2.20;;;22.40;41.50;;;;;;10446394;28;20704;-70
2023/08/30 14:25:16;;;;;;;2.40;2.20;;;22.40;40.60;;;;;;10448762;28;20224;-70
2023/08/30 14:30:19;;;;;;;2.20;2.00;;;22.50;38.70;;;;;;10446981;28;20283;-70
2023/08/30 14:35:24;;;;;;;2.60;2.40;;;22.50;40.50;;;;;;10442788;28;20241;-70
2023/08/30 14:40:28;;;;;;;2.23;2.13;;;22.50;40.00;;;;;;10444224;28;20781;-70
2023/08/30 14:45:32;;;;;;;2.30;2.20;;;22.50;38.80;;;;;;10445596;28;20234;-70
2023/08/30 14:50:35;;;;;;;2.13;1.93;;;22.50;41.20;;;;;;10443327;28;20327;-70
2023/08/30 14:55:40;;;;;;;2.40;2.20;;;22.60;40.50;;;;;;10446926;28;20221;-70
2023/08/30 15:00:43;;;;;;;2.50;2.30;;;22.70;39.00;;;;;;10444570;28;20315;-70
2023/08/30 15:05:54;;;;;;;2.63;2.43;;;22.70;40.40;;;;;;10448044;28;20816;-70
2023/08/30 15:10:59;;;;;;;2.50;2.30;;;22.80;38.70;;;;;;10452943;28;20240;-70
2023/08/30 15:16:03;;;;;;;2.50;2.40;;;22.70;39.40;;;;;;10456234;28;20238;-71
2023/08/30 15:21:06;;;;;;;2.87;2.10;;;22.60;38.80;;;;;;10457108;28;20255;-70
2023/08/30 15:26:16;;;;;;;2.07;1.70;;;22.40;38.60;;;;;;10456340;28;20236;-70
2023/08/30 15:31:19;;;;;;;2.53;2.13;;;22.30;38.50;;;;;;10451016;28;20223;-70
2023/08/30 15:36:23;;;;;;;2.30;2.10;;;22.20;38.60;;;;;;10450381;28;20295;-70
2023/08/30 15:41:27;;;;;;;2.57;2.33;;;22.10;39.30;;;;;;10463418;28;20229;-70
2023/08/30 15:46:31;;;;;;;2.37;2.17;;;22.10;39.20;;;;;;10460019;28;21031;-70
2023/08/30 15:51:36;;;;;;;2.63;2.43;;;22.10;40.10;;;;;;10464697;28;20236;-70
2023/08/30 15:56:40;;;;;;;3.77;2.47;;;22.10;40.40;;;;;;10446783;28;20238;-70
2023/08/30 16:01:44;;;;;;;2.33;2.20;;;22.10;39.80;;;;;;10449884;28;20228;-70
2023/08/30 16:06:47;;;;;;;2.50;2.30;;;22.20;39.80;;;;;;10452757;28;20734;-70
2023/08/30 16:11:52;;;;;;;2.47;2.37;;;22.20;39.70;;;;;;10454203;28;20224;-70
2023/08/30 16:16:55;;;;;;;2.30;2.20;;;22.10;39.30;;;;;;10455188;28;20220;-70
2023/08/30 16:21:58;;;;;;;3.70;3.37;;;22.00;39.60;;;;;;10448261;28;20237;-70
2023/08/30 16:27:03;;;;;;;2.60;2.40;;;22.00;39.30;;;;;;10451997;28;20303;-70
2023/08/30 16:32:06;;;;;;;2.43;2.30;;;21.90;38.90;;;;;;10450826;28;20227;-70
2023/08/30 16:37:10;;;;;;;2.53;2.43;;;21.90;39.90;;;;;;10451123;28;20286;-70
2023/08/30 16:42:14;;;;;;;2.30;2.20;;;21.90;40.00;;;;;;10451161;28;20239;-70
2023/08/30 16:47:17;;;;;;;2.10;2.00;;;22.00;39.90;;;;;;10444579;28;20231;-70
2023/08/30 16:52:21;;;;;;;2.53;2.33;;;22.00;39.90;;;;;;10451797;28;20244;-70
2023/08/30 16:57:29;;;;;;;2.40;2.30;;;22.10;39.80;;;;;;10455810;28;20233;-70
2023/08/30 17:02:34;;;;;;;2.17;2.00;;;22.10;39.60;;;;;;10458546;28;20237;-70
2023/08/30 17:07:37;;;;;;;2.20;2.10;;;22.10;40.00;;;;;;10454617;28;20940;-70
2023/08/30 17:12:42;;;;;;;2.50;2.30;;;22.10;40.30;;;;;;10458719;28;20224;-70
2023/08/30 17:17:47;;;;;;;2.37;2.27;;;22.20;40.10;;;;;;10455862;28;20780;-70
2023/08/30 17:22:50;;;;;;;2.90;2.70;;;22.20;40.10;;;;;;10454077;28;20267;-70
2023/08/30 17:27:55;;;;;;;2.50;2.30;;;22.20;39.60;;;;;;10453722;28;20332;-70
2023/08/30 17:32:59;;;;;;;2.60;2.33;;;22.00;39.40;;;;;;10457200;28;20247;-71
2023/08/30 17:38:02;;;;;;;2.47;2.27;;;22.00;40.10;;;;;;10455567;28;20236;-71
2023/08/30 17:43:07;;;;;;;4.30;2.40;;;21.90;40.40;;;;;;10454744;28;20852;-70
2023/08/30 17:48:10;;;;;;;2.63;2.43;;;21.80;41.00;;;;;;10453187;28;20238;-70
2023/08/30 17:53:15;;;;;;;2.60;2.40;;;21.80;41.00;;;;;;10450479;28;20228;-70
2023/08/30 17:58:20;;;;;;;2.43;2.23;;;21.80;41.10;;;;;;10455730;28;20236;-71
2023/08/30 18:03:23;;;;;;;3.23;2.93;;;21.80;41.10;;;;;;10454631;28;20628;-71
2023/08/30 18:08:27;;;;;;;3.10;2.60;;;21.80;41.20;;;;;;10457686;28;20272;-70
2023/08/30 18:13:32;;;;;;;2.67;2.47;;;21.70;41.10;;;;;;10456925;28;20712;-71
2023/08/30 18:18:35;;;;;;;2.87;2.67;;;21.70;41.00;;;;;;10459630;28;20254;-71
2023/08/30 18:23:42;;;;;;;2.90;2.70;;;21.50;40.80;;;;;;10454894;28;20225;-70
2023/08/30 18:28:48;;;;;;;3.00;2.80;;;21.30;41.00;;;;;;10453234;28;20307;-71
2023/08/30 18:33:51;;;;;;;3.07;2.87;;;21.00;40.90;;;;;;10454040;28;20264;-71
2023/08/30 18:38:54;;;;;;;2.53;2.43;;;20.90;41.20;;;;;;10456338;28;20232;-71
2023/08/30 18:43:59;;;;;;;2.30;2.00;;;20.70;41.20;;;;;;10454391;28;20270;-70
2023/08/30 18:49:03;;;;;;;2.23;2.03;;;20.60;40.50;;;;;;10454713;28;20669;-71
2023/08/30 18:54:07;;;;;;;1.80;1.70;;;20.40;40.70;;;;;;10451834;28;20224;-70
2023/08/30 18:59:14;;;;;;;1.70;1.60;;;20.30;40.60;;;;;;10451876;28;20970;-70
2023/08/30 19:04:17;;;;;;;2.00;1.90;;;20.10;40.80;;;;;;10449829;28;20315;-70
2023/08/30 19:09:21;;;;;;;2.57;1.73;;;20.00;41.20;;;;;;10450170;28;20760;-70
2023/08/30 19:14:25;;;;;;;1.33;1.33;;;19.90;41.60;;;;;;10453120;28;20228;-71
2023/08/30 19:19:30;;;;;;;1.83;1.57;;;19.80;41.90;;;;;;10449296;28;20775;-71
2023/08/30 19:24:36;;;;;;;1.70;1.60;;;19.80;42.00;;;;;;10446495;28;20256;-71
2023/08/30 19:29:43;;;;;;;1.87;1.77;;;19.80;42.40;;;;;;10445868;28;20238;-71
2023/08/30 19:34:47;;;;;;;3.03;1.70;;;19.70;42.30;;;;;;10445467;28;20311;-71
2023/08/30 19:39:51;;;;;;;2.17;2.07;;;19.60;42.10;;;;;;10444201;28;20596;-71
2023/08/30 19:44:57;;;;;;;1.97;1.87;;;19.50;42.50;;;;;;10449375;28;20236;-71
2023/08/30 19:50:01;;;;;;;1.90;1.80;;;19.40;43.10;;;;;;10451285;28;20231;-71
2023/08/30 19:55:05;;;;;;;2.00;1.90;;;19.30;43.10;;;;;;10450542;28;20315;-70
2023/08/30 20:00:11;;;;;;;2.00;1.90;;;19.40;43.40;;;;;;10454853;28;20224;-71
2023/08/30 20:05:15;;;;;;;1.90;1.80;;;19.40;43.80;;;;;;10447008;28;20228;-71
2023/08/30 20:10:19;;;;;;;2.67;1.87;;;19.50;43.30;;;;;;10446314;28;20644;-71
2023/08/30 20:15:27;;;;;;;2.10;2.00;;;19.50;43.30;;;;;;10452581;28;20244;-71
2023/08/30 20:20:36;;;;;;;2.20;2.00;;;19.40;43.40;;;;;;10446606;28;20252;-73
2023/08/30 20:25:39;;;;;;;2.67;2.23;;;19.30;43.80;;;;;;10446965;28;20648;-73
2023/08/30 20:30:48;;;;;;;2.20;2.10;;;19.20;43.40;;;;;;10447297;28;20945;-73
2023/08/30 20:35:51;;;;;;;2.13;2.03;;;19.20;44.20;;;;;;10457093;28;20213;-72
2023/08/30 20:40:54;;;;;;;2.13;2.03;;;19.10;43.80;;;;;;10450972;28;20318;-72
2023/08/30 20:46:00;;;;;;;2.70;2.50;;;19.00;43.90;;;;;;10448128;28;20251;-73
2023/08/30 20:51:04;;;;;;;3.60;2.40;;;18.90;44.50;;;;;;10453497;28;20221;-72
2023/08/30 20:56:08;;;;;;;2.63;2.30;;;18.80;44.20;;;;;;10447930;28;20735;-72
2023/08/30 21:01:13;;;;;;;2.63;2.43;;;18.70;44.60;;;;;;10450122;28;20339;-72
2023/08/30 21:06:17;;;;;;;2.53;2.33;;;18.70;45.10;;;;;;10453528;28;20234;-72
2023/08/30 21:11:20;;;;;;;2.20;2.10;;;18.70;44.70;;;;;;10445487;28;20235;-72
2023/08/30 21:16:25;;;;;;;2.20;2.10;;;18.60;45.00;;;;;;10452422;28;21015;-72
2023/08/30 21:21:29;;;;;;;2.23;2.13;;;18.70;45.20;;;;;;10454877;28;20900;-73
2023/08/30 21:26:32;;;;;;;2.33;2.13;;;18.80;44.70;;;;;;10449964;28;20230;-72
2023/08/30 21:31:36;;;;;;;2.10;2.00;;;18.80;44.80;;;;;;10452113;28;20236;-72
2023/08/30 21:36:40;;;;;;;2.50;2.40;;;18.80;45.00;;;;;;10449476;28;20271;-73
2023/08/30 21:41:43;;;;;;;2.50;2.30;;;18.90;44.50;;;;;;10454982;28;20320;-73
2023/08/30 21:46:47;;;;;;;2.53;2.40;;;18.90;44.10;;;;;;10452173;28;20283;-72
2023/08/30 21:51:51;;;;;;;2.80;2.60;;;18.90;44.10;;;;;;10448655;28;20235;-73
2023/08/30 21:56:54;;;;;;;2.60;2.40;;;18.80;43.90;;;;;;10453434;28;20248;-72
2023/08/30 22:01:58;;;;;;;2.70;2.50;;;18.70;43.90;;;;;;10446595;28;20312;-72
2023/08/30 22:07:05;;;;;;;2.67;2.47;;;18.60;44.20;;;;;;10452780;28;20243;-72
2023/08/30 22:12:09;;;;;;;2.63;2.37;;;18.40;43.90;;;;;;10449469;28;20224;-72
2023/08/30 22:17:13;;;;;;;2.90;2.70;;;18.20;44.20;;;;;;10449522;28;20224;-72
2023/08/30 22:22:17;;;;;;;2.60;2.40;;;18.00;44.90;;;;;;10447852;28;20259;-72
2023/08/30 22:27:21;;;;;;;2.87;2.60;;;17.90;44.90;;;;;;10446289;28;20231;-72
2023/08/30 22:32:26;;;;;;;2.53;2.23;;;17.90;45.20;;;;;;10448564;28;20878;-72
2023/08/30 22:37:30;;;;;;;2.60;2.50;;;17.90;45.70;;;;;;10449850;28;20244;-72
2023/08/30 22:42:33;;;;;;;2.83;2.70;;;17.80;45.40;;;;;;10448824;28;20307;-72
2023/08/30 22:47:38;;;;;;;3.00;2.70;;;17.80;45.60;;;;;;10453870;28;20242;-72
2023/08/30 22:52:41;;;;;;;3.20;3.00;;;17.80;46.30;;;;;;10449455;28;20228;-72
2023/08/30 22:57:44;;;;;;;4.27;2.90;;;17.80;45.90;;;;;;10454635;28;20217;-72
2023/08/30 23:02:50;;;;;;;3.07;2.87;;;17.70;46.10;;;;;;10452645;28;20701;-72
2023/08/30 23:07:54;;;;;;;3.40;3.20;;;17.70;46.70;;;;;;10452599;28;20212;-72
2023/08/30 23:12:57;;;;;;;3.23;3.03;;;17.70;46.20;;;;;;10452942;28;20231;-72
2023/08/30 23:18:03;;;;;;;3.13;2.93;;;17.60;46.50;;;;;;10455596;28;20230;-72
2023/08/30 23:23:08;;;;;;;3.17;2.97;;;17.60;46.60;;;;;;10454282;28;20696;-72
2023/08/30 23:28:13;;;;;;;2.93;2.73;;;17.60;46.60;;;;;;10456043;28;20310;-72
2023/08/30 23:33:18;;;;;;;3.27;3.07;;;17.70;46.70;;;;;;10459614;28;20571;-72
2023/08/30 23:38:21;;;;;;;3.13;2.83;;;17.70;46.70;;;;;;10461279;28;20311;-72
2023/08/30 23:43:24;;;;;;;3.20;3.00;;;17.80;46.60;;;;;;10458646;28;20318;-73
2023/08/30 23:48:29;;;;;;;2.90;2.70;;;17.80;46.10;;;;;;10457820;28;20231;-72
2023/08/30 23:53:32;;;;;;;2.80;2.60;;;17.80;46.80;;;;;;10460961;28;20221;-72
2023/08/30 23:58:36;;;;;;;3.30;3.00;;;17.80;46.30;;;;;;10461968;28;20229;-72
